This is the latest recevied weather packets stored in our database for station/object K0WXC-1. If no packets are shown the sender has not sent any weather packets the latest 10 day(s).
| Time | Temp. | Humidity | Pressure | Rain* | Wind** | Luminosity | Snow |
|---|---|---|---|---|---|---|---|
| 1777183708 | 15.56° C | 55% | 999.3 hPa | 0 mm | 2.24 m/s, 110° | - | - |
| 1777183648 | 15.56° C | 55% | 999.3 hPa | 0 mm | 2.24 m/s, 110° | - | - |
| 1777183588 | 15.56° C | 54% | 999.3 hPa | 0 mm | 1.79 m/s, 106° | - | - |
| 1777183528 | 15.56° C | 54% | 999.3 hPa | 0 mm | 1.79 m/s, 106° | - | - |
| 1777183468 | 15.56° C | 54% | 999.3 hPa | 0 mm | 1.79 m/s, 106° | - | - |
| 1777183408 | 15.56° C | 54% | 999.3 hPa | 0 mm | 1.79 m/s, 106° | - | - |
| 1777183348 | 15.56° C | 54% | 999.3 hPa | 0 mm | 1.79 m/s, 106° | - | - |
| 1777183288 | 15.56° C | 54% | 999.3 hPa | 0 mm | 1.79 m/s, 106° | - | - |
| 1777183228 | 15.56° C | 54% | 999.6 hPa | 0 mm | 3.13 m/s, 96° | - | - |
| 1777183168 | 15.56° C | 54% | 999.6 hPa | 0 mm | 3.13 m/s, 96° | - | - |
| 1777183108 | 15.56° C | 54% | 999.6 hPa | 0 mm | 3.13 m/s, 96° | - | - |
| 1777183048 | 15.56° C | 54% | 999.6 hPa | 0 mm | 3.13 m/s, 96° | - | - |
| 1777182988 | 15.56° C | 54% | 999.6 hPa | 0 mm | 3.13 m/s, 96° | - | - |
| 1777182928 | 15.56° C | 54% | 999.6 hPa | 0 mm | 0.89 m/s, 116° | - | - |
| 1777182868 | 15.56° C | 54% | 999.6 hPa | 0 mm | 0.89 m/s, 116° | - | - |
| 1777182808 | 15.56° C | 54% | 999.6 hPa | 0 mm | 0.89 m/s, 116° | - | - |
| 1777182748 | 15.56° C | 54% | 999.6 hPa | 0 mm | 0.89 m/s, 116° | - | - |
| 1777182688 | 15.56° C | 54% | 999.6 hPa | 0 mm | 0.89 m/s, 116° | - | - |
| 1777182628 | 15.56° C | 54% | 999.6 hPa | 0 mm | 1.79 m/s, 79° | - | - |
| 1777182568 | 15.56° C | 54% | 999.6 hPa | 0 mm | 1.79 m/s, 79° | - | - |
| 1777182508 | 15.56° C | 54% | 999.6 hPa | 0 mm | 1.79 m/s, 79° | - | - |
| 1777182448 | 15.56° C | 54% | 999.6 hPa | 0 mm | 1.79 m/s, 79° | - | - |
| 1777182388 | 15.56° C | 55% | 999.3 hPa | 0 mm | 0.89 m/s, 137° | - | - |
| 1777182328 | 15.56° C | 55% | 999.3 hPa | 0 mm | 0.89 m/s, 137° | - | - |
| 1777182268 | 15.56° C | 55% | 999.3 hPa | 0 mm | 0.89 m/s, 137° | - | - |
* Rain latest hour (hover to see other rain measurements)
** Current wind speed in m/s (hover to see current wind gust speed)